createdAt,value
2018-09-03T00:01:55.017Z,102213.97
2018-09-03T00:04:22.882Z,102207.48
2018-09-03T00:06:50.766Z,102203.58
2018-09-03T00:09:18.686Z,102200.95
2018-09-03T00:11:46.587Z,102206.77
2018-09-03T00:14:14.666Z,102209.50
2018-09-03T00:16:42.559Z,102217.48
2018-09-03T00:19:10.447Z,102212.69
2018-09-03T00:21:38.385Z,102211.38
2018-09-03T00:24:06.203Z,102204.83
2018-09-03T00:26:33.880Z,102208.96
2018-09-03T00:29:01.626Z,102203.44
2018-09-03T00:31:34.793Z,102202.64
2018-09-03T00:34:08.093Z,102206.70
2018-09-03T00:36:41.288Z,102214.27
2018-09-03T00:39:14.579Z,102205.53
2018-09-03T00:41:47.780Z,102202.61
2018-09-03T00:44:20.975Z,102199.66
2018-09-03T00:46:54.199Z,102209.91
2018-09-03T00:49:22.133Z,102206.87
2018-09-03T00:51:49.818Z,102209.08
2018-09-03T00:54:17.517Z,102209.98
2018-09-03T00:56:45.263Z,102202.16
2018-09-03T00:59:12.969Z,102205.40
2018-09-03T01:01:40.679Z,102208.57
2018-09-03T01:04:08.465Z,102201.50
2018-09-03T01:06:36.175Z,102206.36
2018-09-03T01:09:05.011Z,102210.79
2018-09-03T01:11:32.743Z,102205.94
2018-09-03T01:14:00.443Z,102199.36
2018-09-03T01:16:28.211Z,102207.31
2018-09-03T01:18:56.644Z,102206.01
2018-09-03T01:21:25.333Z,102209.53
2018-09-03T01:23:53.467Z,102205.63
2018-09-03T01:26:21.177Z,102206.59
2018-09-03T01:28:48.897Z,102201.75
2018-09-03T01:31:19.583Z,102195.64
2018-09-03T01:33:49.489Z,102193.11
2018-09-03T01:36:17.625Z,102194.52
2018-09-03T01:38:45.373Z,102184.44
2018-09-03T01:41:13.233Z,102188.11
2018-09-03T01:43:40.944Z,102186.48
2018-09-03T01:48:43.257Z,102187.89
2018-09-03T01:51:11.009Z,102184.94
2018-09-03T01:53:38.956Z,102186.33
2018-09-03T01:56:07.364Z,102184.20
2018-09-03T01:58:35.082Z,102181.22
2018-09-03T02:01:03.009Z,102175.99
2018-09-03T02:03:30.776Z,102173.42
2018-09-03T02:05:58.501Z,102169.14
2018-09-03T02:08:26.347Z,102168.34
2018-09-03T02:10:54.056Z,102175.02
2018-09-03T02:13:21.859Z,102163.23
2018-09-03T02:15:49.596Z,102162.85
2018-09-03T02:18:17.364Z,102157.14
2018-09-03T02:20:45.131Z,102154.55
2018-09-03T02:23:12.875Z,102155.48
2018-09-03T02:25:40.604Z,102151.14
2018-09-03T02:28:08.345Z,102156.08
2018-09-03T02:30:36.188Z,102153.48
2018-09-03T02:33:04.151Z,102143.78
2018-09-03T02:35:31.847Z,102144.70
2018-09-03T02:37:59.545Z,102146.88
2018-09-03T02:40:27.285Z,102145.60
2018-09-03T02:42:55.051Z,102140.37
2018-09-03T02:45:22.715Z,102139.56
2018-09-03T02:47:50.393Z,102143.20
2018-09-03T02:50:18.173Z,102145.42
2018-09-03T02:52:45.867Z,102143.22
2018-09-03T02:55:13.592Z,102138.42
2018-09-03T02:57:41.323Z,102135.83
2018-09-03T03:00:09.120Z,102132.80
2018-09-03T03:02:36.839Z,102129.28
2018-09-03T03:05:05.113Z,102132.88
2018-09-03T03:07:32.830Z,102125.45
2018-09-03T03:10:00.548Z,102124.13
2018-09-03T03:12:28.341Z,102128.47
2018-09-03T03:14:56.985Z,102119.65
2018-09-03T03:17:24.796Z,102118.82
2018-09-03T03:19:52.539Z,102114.40
2018-09-03T03:22:20.452Z,102115.28
2018-09-03T03:24:48.327Z,102120.54
2018-09-03T03:27:16.404Z,102079.50
2018-09-03T03:29:44.190Z,102114.85
2018-09-03T03:32:11.936Z,102102.61
2018-09-03T03:34:39.623Z,102109.61
2018-09-03T03:37:07.708Z,102106.58
2018-09-03T03:39:35.482Z,102103.98
2018-09-03T03:42:03.190Z,102096.94
2018-09-03T03:44:30.902Z,102099.14
2018-09-03T03:46:58.716Z,102096.94
2018-09-03T03:49:26.468Z,102098.75
2018-09-03T03:51:54.202Z,102106.69
2018-09-03T03:54:21.928Z,102103.23
2018-09-03T03:56:49.732Z,102110.78
2018-09-03T03:59:17.413Z,102109.13
2018-09-03T04:01:45.193Z,102111.77
2018-09-03T04:04:12.877Z,102115.73
2018-09-03T04:06:40.592Z,102104.67
2018-09-03T04:09:09.779Z,102105.42
2018-09-03T04:11:37.545Z,102104.31
2018-09-03T04:14:05.247Z,102109.51
2018-09-03T04:16:32.961Z,102107.56
2018-09-03T04:19:00.644Z,102099.02
2018-09-03T04:21:28.361Z,102101.14
2018-09-03T04:23:56.233Z,102099.67
2018-09-03T04:26:23.944Z,102101.77
2018-09-03T04:28:51.775Z,102098.55
2018-09-03T04:31:19.680Z,102099.30
2018-09-03T04:33:47.421Z,102093.80
2018-09-03T04:36:15.178Z,102091.00
2018-09-03T04:38:43.026Z,102096.08
2018-09-03T04:41:10.752Z,102093.29
2018-09-03T04:43:38.480Z,102083.88
2018-09-03T04:46:06.340Z,102081.45
2018-09-03T04:48:34.124Z,102084.23
2018-09-03T04:51:01.843Z,102081.70
2018-09-03T04:53:29.641Z,102086.31
2018-09-03T04:55:57.348Z,102078.98
2018-09-03T04:58:25.090Z,102082.64
2018-09-03T05:00:52.816Z,102081.50
2018-09-03T05:03:20.549Z,102082.58
2018-09-03T05:05:48.346Z,102081.55
2018-09-03T05:08:16.120Z,102076.84
2018-09-03T05:10:43.924Z,102083.91
2018-09-03T05:13:11.607Z,102085.32
2018-09-03T05:15:39.334Z,102084.03
2018-09-03T05:18:07.124Z,102086.23
2018-09-03T05:20:34.984Z,102080.55
2018-09-03T05:23:02.776Z,102080.11
2018-09-03T05:25:30.492Z,102074.77
2018-09-03T05:27:58.200Z,102076.99
2018-09-03T05:30:25.920Z,102076.88
2018-09-03T05:32:53.734Z,102075.14
2018-09-03T05:35:21.424Z,102069.16
2018-09-03T05:37:49.146Z,102071.83
2018-09-03T05:40:16.891Z,102065.30
2018-09-03T05:42:44.564Z,102062.56
2018-09-03T05:45:12.285Z,102065.80
2018-09-03T05:47:40.017Z,102060.81
2018-09-03T05:50:07.768Z,102061.63
2018-09-03T05:52:35.495Z,102054.42
2018-09-03T05:55:03.232Z,102055.11
2018-09-03T05:57:30.934Z,102054.72
2018-09-03T05:59:58.640Z,102059.92
2018-09-03T06:02:26.349Z,102051.17
2018-09-03T06:04:54.138Z,102053.59
2018-09-03T06:07:21.884Z,102051.86
2018-09-03T06:09:49.588Z,102041.58
2018-09-03T06:12:17.309Z,102039.23
2018-09-03T06:14:45.045Z,102035.95
2018-09-03T06:17:12.735Z,102044.11
2018-09-03T06:19:40.444Z,102039.67
2018-09-03T06:22:08.325Z,102033.11
2018-09-03T06:24:36.080Z,102041.73
2018-09-03T06:27:03.799Z,102036.55
2018-09-03T06:29:31.583Z,102035.77
2018-09-03T06:31:59.289Z,102036.34
2018-09-03T06:34:27.000Z,102034.70
2018-09-03T06:36:54.761Z,102043.83
2018-09-03T06:39:22.484Z,102037.26
2018-09-03T06:41:50.207Z,102033.39
2018-09-03T06:44:17.941Z,102034.11
2018-09-03T06:46:45.738Z,102024.37
2018-09-03T06:49:13.576Z,102028.44
2018-09-03T06:51:41.300Z,102029.69
2018-09-03T06:54:09.148Z,102030.12
2018-09-03T06:56:37.947Z,102031.62
2018-09-03T06:59:05.736Z,102025.84
2018-09-03T07:01:34.099Z,102017.30
2018-09-03T07:04:01.860Z,102020.22
2018-09-03T07:06:29.591Z,102018.51
2018-09-03T07:08:57.412Z,102016.25
2018-09-03T07:11:25.163Z,102010.79
2018-09-03T07:13:52.893Z,102009.39
2018-09-03T07:16:20.615Z,102011.40
2018-09-03T07:18:48.346Z,102016.73
2018-09-03T07:21:16.102Z,102012.66
2018-09-03T07:23:43.804Z,102009.09
2018-09-03T07:26:11.660Z,102006.89
2018-09-03T07:28:39.455Z,102005.11
2018-09-03T07:31:07.167Z,102004.80
2018-09-03T07:33:34.985Z,102005.87
2018-09-03T07:36:02.738Z,102001.42
2018-09-03T07:38:30.507Z,102008.69
2018-09-03T07:40:58.281Z,102007.15
2018-09-03T07:43:26.123Z,101999.23
2018-09-03T07:45:53.892Z,102001.91
2018-09-03T07:48:21.626Z,101996.48
2018-09-03T07:50:49.380Z,101993.16
2018-09-03T07:53:17.095Z,101999.88
2018-09-03T07:55:44.808Z,102001.52
2018-09-03T07:58:12.548Z,101999.47
2018-09-03T08:00:40.313Z,101991.16
2018-09-03T08:03:08.061Z,101996.56
2018-09-03T08:05:35.809Z,101997.72
2018-09-03T08:08:03.588Z,101991.66
2018-09-03T08:10:31.375Z,101994.41
2018-09-03T08:12:59.153Z,101989.59
2018-09-03T08:15:26.891Z,101998.66
2018-09-03T08:17:54.622Z,101987.62
2018-09-03T08:20:22.409Z,101991.55
2018-09-03T08:22:50.151Z,101983.77
2018-09-03T08:25:17.870Z,101984.78
2018-09-03T08:27:45.624Z,101978.53
2018-09-03T08:30:13.366Z,101986.55
2018-09-03T08:32:41.220Z,101975.04
2018-09-03T08:35:09.125Z,101975.21
2018-09-03T08:37:36.841Z,101968.73
2018-09-03T08:40:04.817Z,101982.08
2018-09-03T08:42:32.639Z,101973.67
2018-09-03T08:45:00.393Z,101968.36
2018-09-03T08:47:28.107Z,101968.03
2018-09-03T08:49:56.022Z,101972.09
2018-09-03T08:52:23.790Z,101979.57
2018-09-03T08:54:51.544Z,101974.32
2018-09-03T08:57:19.270Z,101975.55
2018-09-03T08:59:47.125Z,101967.02
2018-09-03T09:02:14.842Z,101977.39
2018-09-03T09:04:42.605Z,101966.81
2018-09-03T09:07:10.443Z,101968.39
2018-09-03T09:09:38.256Z,101963.77
2018-09-03T09:12:05.988Z,101967.44
2018-09-03T09:14:33.777Z,101964.59
2018-09-03T09:17:01.503Z,101965.23
2018-09-03T09:19:29.278Z,101973.45
2018-09-03T09:21:57.035Z,101967.36
2018-09-03T09:24:24.765Z,101959.97
2018-09-03T09:26:52.520Z,101955.84
2018-09-03T09:29:20.337Z,101953.39
2018-09-03T09:31:48.050Z,101955.23
2018-09-03T09:34:15.767Z,101953.52
2018-09-03T09:36:43.576Z,101956.34
2018-09-03T09:39:11.304Z,101957.41
2018-09-03T09:41:39.052Z,101947.23
2018-09-03T09:44:06.770Z,101948.55
2018-09-03T09:46:34.594Z,101954.85
2018-09-03T09:49:02.340Z,101950.32
2018-09-03T09:51:30.072Z,101944.30
2018-09-03T09:53:58.293Z,101954.28
2018-09-03T09:56:26.420Z,101960.55
2018-09-03T09:58:54.365Z,101953.32
2018-09-03T10:01:27.848Z,101950.89
2018-09-03T10:03:55.681Z,101953.95
2018-09-03T10:06:23.489Z,101948.61
2018-09-03T10:08:51.228Z,101941.47
2018-09-03T10:11:18.969Z,101944.70
2018-09-03T10:13:46.723Z,101942.88
2018-09-03T10:16:14.475Z,101942.41
2018-09-03T10:18:42.244Z,101944.18
2018-09-03T10:21:10.066Z,101947.05
2018-09-03T10:23:37.760Z,101945.59
2018-09-03T10:26:05.496Z,101942.23
2018-09-03T10:28:33.212Z,101948.39
2018-09-03T10:31:01.005Z,101938.81
2018-09-03T10:33:28.683Z,101942.05
2018-09-03T10:35:56.451Z,101933.32
2018-09-03T10:38:24.165Z,101931.86
2018-09-03T10:40:51.868Z,101935.20
2018-09-03T10:43:19.594Z,101926.88
2018-09-03T10:45:47.353Z,101936.88
2018-09-03T10:48:16.448Z,101937.67
2018-09-03T10:50:44.512Z,101933.60
2018-09-03T10:53:12.194Z,101935.81
2018-09-03T10:55:40.506Z,101934.08
2018-09-03T10:58:08.644Z,101930.92
2018-09-03T11:00:36.356Z,101927.64
2018-09-03T11:03:04.139Z,101913.16
2018-09-03T11:05:31.847Z,101911.48
2018-09-03T11:07:59.812Z,101921.13
2018-09-03T11:10:27.557Z,101916.44
2018-09-03T11:12:55.331Z,101920.64
2018-09-03T11:15:23.057Z,101918.78
2018-09-03T11:17:50.769Z,101910.80
2018-09-03T11:20:23.352Z,101912.57
2018-09-03T11:22:51.093Z,101917.35
2018-09-03T11:25:18.868Z,101914.42
2018-09-03T11:27:47.875Z,101908.78
2018-09-03T11:30:15.648Z,101912.77
2018-09-03T11:32:47.819Z,101911.52
2018-09-03T11:35:15.544Z,101907.45
2018-09-03T11:37:43.209Z,101917.16
2018-09-03T11:40:10.913Z,101906.47
2018-09-03T11:42:38.635Z,101905.16
2018-09-03T11:45:06.537Z,101894.73
2018-09-03T11:47:34.236Z,101903.09
2018-09-03T11:50:01.921Z,101900.66
2018-09-03T11:52:29.684Z,101899.08
2018-09-03T11:54:57.400Z,101895.82
2018-09-03T11:57:25.130Z,101903.14
2018-09-03T11:59:52.865Z,101900.72
2018-09-03T12:02:20.583Z,101890.61
2018-09-03T12:04:48.278Z,101896.59
2018-09-03T12:07:16.008Z,101897.36
2018-09-03T12:09:43.737Z,101887.91
2018-09-03T12:12:11.446Z,101885.79
2018-09-03T12:14:41.560Z,101883.17
2018-09-03T12:17:09.349Z,101890.75
2018-09-03T12:19:37.085Z,101891.54
2018-09-03T12:22:04.797Z,101895.00
2018-09-03T12:24:32.495Z,101891.16
2018-09-03T12:27:00.274Z,101895.33
2018-09-03T12:29:27.984Z,101887.41
2018-09-03T12:31:55.833Z,101888.67
2018-09-03T12:34:23.591Z,101893.63
2018-09-03T12:36:51.299Z,101883.16
2018-09-03T12:39:19.082Z,101887.17
2018-09-03T12:41:46.828Z,101882.80
2018-09-03T12:44:14.536Z,101879.61
2018-09-03T12:46:42.220Z,101877.19
2018-09-03T12:49:09.972Z,101880.09
2018-09-03T12:51:37.653Z,101877.63
2018-09-03T12:54:05.640Z,101880.77
2018-09-03T12:56:33.409Z,101867.30
2018-09-03T12:59:01.172Z,101867.95
2018-09-03T13:01:28.944Z,101874.82
2018-09-03T13:03:56.637Z,101870.34
2018-09-03T13:06:24.342Z,101871.03
2018-09-03T13:08:52.128Z,101863.59
2018-09-03T13:11:19.833Z,101855.97
2018-09-03T13:13:47.525Z,101859.80
2018-09-03T13:16:15.314Z,101862.52
2018-09-03T13:18:43.096Z,101859.98
2018-09-03T13:21:10.908Z,101868.09
2018-09-03T13:23:38.610Z,101856.67
2018-09-03T13:26:06.320Z,101855.16
2018-09-03T13:28:34.069Z,101847.47
2018-09-03T13:31:01.796Z,101849.35
2018-09-03T13:33:29.640Z,101846.09
2018-09-03T13:35:57.345Z,101849.27
2018-09-03T13:38:25.083Z,101847.09
2018-09-03T13:40:52.981Z,101850.13
2018-09-03T13:43:20.747Z,101856.53
2018-09-03T13:45:48.642Z,101859.03
2018-09-03T13:48:16.398Z,101852.80
2018-09-03T13:50:50.720Z,101852.97
2018-09-03T13:53:18.489Z,101851.10
2018-09-03T13:55:46.301Z,101847.63
2018-09-03T13:58:14.066Z,101849.75
2018-09-03T14:00:41.836Z,101848.67
2018-09-03T14:03:09.585Z,101843.86
2018-09-03T14:05:37.380Z,101847.80
2018-09-03T14:08:05.102Z,101841.02
2018-09-03T14:10:32.867Z,101840.91
2018-09-03T14:13:00.672Z,101834.64
2018-09-03T14:15:28.455Z,101829.38
2018-09-03T14:17:56.281Z,101837.84
2018-09-03T14:20:24.044Z,101835.72
2018-09-03T14:22:51.814Z,101832.55
2018-09-03T14:25:19.585Z,101824.02
2018-09-03T14:27:47.350Z,101824.61
2018-09-03T14:30:15.089Z,101825.64
2018-09-03T14:32:42.817Z,101823.87
2018-09-03T14:35:10.554Z,101831.27
2018-09-03T14:37:38.308Z,101828.98
2018-09-03T14:40:06.181Z,101626.41
2018-09-03T14:42:34.032Z,101831.06
2018-09-03T14:45:01.728Z,101830.70
2018-09-03T14:47:29.501Z,101829.05
2018-09-03T14:49:57.393Z,101830.14
2018-09-03T14:52:25.192Z,101836.64
2018-09-03T14:54:53.216Z,101828.36
2018-09-03T14:57:21.057Z,101823.63
2018-09-03T14:59:48.931Z,101819.22
2018-09-03T15:02:16.729Z,101823.50
2018-09-03T15:04:44.445Z,101821.18
2018-09-03T15:07:12.196Z,101816.19
2018-09-03T15:09:39.937Z,101821.73
2018-09-03T15:12:07.699Z,101818.50
2018-09-03T15:14:35.429Z,101819.41
2018-09-03T15:17:03.187Z,101821.57
2018-09-03T15:19:30.994Z,101819.03
2018-09-03T15:21:58.745Z,101820.55
2018-09-03T15:24:26.471Z,101817.58
2018-09-03T15:26:54.189Z,101818.59
2018-09-03T15:29:21.911Z,101814.45
2018-09-03T15:31:49.869Z,101819.64
2018-09-03T15:34:17.578Z,101817.14
2018-09-03T15:36:45.478Z,101818.08
2018-09-03T15:39:13.405Z,101813.77
2018-09-03T15:41:41.341Z,101816.32
2018-09-03T15:44:09.053Z,101819.31
2018-09-03T15:46:36.790Z,101815.46
2018-09-03T15:49:04.562Z,101812.09
2018-09-03T15:51:32.251Z,101811.49
2018-09-03T15:54:00.064Z,101808.36
2018-09-03T15:56:27.869Z,101810.90
2018-09-03T15:58:55.560Z,101809.90
2018-09-03T16:01:23.265Z,101812.27
2018-09-03T16:03:51.006Z,101810.70
2018-09-03T16:06:18.747Z,101815.12
2018-09-03T16:08:46.440Z,101808.42
2018-09-03T16:11:14.212Z,101809.53
2018-09-03T16:13:41.892Z,101810.83
2018-09-03T16:16:09.997Z,101810.02
2018-09-03T16:18:37.850Z,101804.57
2018-09-03T16:21:05.832Z,101807.41
2018-09-03T16:23:33.860Z,101801.35
2018-09-03T16:26:01.647Z,101804.02
2018-09-03T16:28:29.409Z,101801.05
2018-09-03T16:30:57.100Z,101803.02
2018-09-03T16:33:25.930Z,101807.13
2018-09-03T16:35:53.658Z,101807.13
2018-09-03T16:38:21.348Z,101803.74
2018-09-03T16:40:49.049Z,101799.95
2018-09-03T16:43:16.759Z,101797.51
2018-09-03T16:45:44.476Z,101803.58
2018-09-03T16:48:12.238Z,101801.53
2018-09-03T16:50:39.932Z,101805.70
2018-09-03T16:53:07.616Z,101803.34
2018-09-03T16:55:35.359Z,101797.66
2018-09-03T16:58:03.027Z,101799.78
2018-09-03T17:00:30.739Z,101795.71
2018-09-03T17:02:58.464Z,101792.80
2018-09-03T17:05:26.232Z,101789.87
2018-09-03T17:07:53.992Z,101785.87
2018-09-03T17:10:21.722Z,101784.81
2018-09-03T17:12:49.527Z,101793.59
2018-09-03T17:15:17.252Z,101789.48
2018-09-03T17:17:45.016Z,101797.65
2018-09-03T17:20:12.712Z,101795.75
2018-09-03T17:22:40.408Z,101790.36
2018-09-03T17:25:08.152Z,101790.80
2018-09-03T17:27:35.868Z,101794.09
2018-09-03T17:30:03.656Z,101793.52
2018-09-03T17:32:31.417Z,101782.26
2018-09-03T17:34:59.112Z,101792.87
2018-09-03T17:37:26.814Z,101796.30
2018-09-03T17:39:54.529Z,101788.27
2018-09-03T17:42:22.207Z,101793.80
2018-09-03T17:44:50.024Z,101792.28
2018-09-03T17:47:17.817Z,101795.29
2018-09-03T17:49:45.592Z,101794.78
2018-09-03T17:52:13.287Z,101792.50
2018-09-03T17:54:41.095Z,101787.13
2018-09-03T17:57:08.773Z,101788.73
2018-09-03T17:59:36.464Z,101791.53
2018-09-03T18:02:04.205Z,101795.95
2018-09-03T18:04:31.948Z,101791.53
2018-09-03T18:06:59.645Z,101793.44
2018-09-03T18:09:27.362Z,101789.47
2018-09-03T18:11:55.050Z,101788.11
2018-09-03T18:14:22.720Z,101789.05
2018-09-03T18:16:50.619Z,101790.30
2018-09-03T18:19:18.311Z,101781.36
2018-09-03T18:21:46.099Z,101783.98
2018-09-03T18:24:13.820Z,101783.59
2018-09-03T18:26:41.527Z,101791.16
2018-09-03T18:29:09.321Z,101782.66
2018-09-03T18:31:37.008Z,101781.35
2018-09-03T18:34:04.781Z,101784.78
2018-09-03T18:36:32.516Z,101782.52
2018-09-03T18:39:00.204Z,101781.05
2018-09-03T18:41:27.883Z,101788.89
2018-09-03T18:43:55.622Z,101794.55
2018-09-03T18:46:23.312Z,101788.73
2018-09-03T18:48:51.024Z,101790.84
2018-09-03T18:51:18.803Z,101793.83
2018-09-03T18:53:46.505Z,101789.67
2018-09-03T18:56:14.495Z,101791.73
2018-09-03T18:58:42.208Z,101783.16
2018-09-03T19:01:09.911Z,101787.86
2018-09-03T19:03:37.616Z,101787.33
2018-09-03T19:06:05.722Z,101780.17
2018-09-03T19:08:33.452Z,101777.40
2018-09-03T19:11:01.142Z,101773.30
2018-09-03T19:13:29.109Z,101775.30
2018-09-03T19:15:56.866Z,101770.68
2018-09-03T19:18:24.576Z,101775.91
2018-09-03T19:20:52.494Z,101770.05
2018-09-03T19:23:20.206Z,101775.67
2018-09-03T19:25:47.892Z,101765.44
2018-09-03T19:28:15.642Z,101766.09
2018-09-03T19:30:43.344Z,101761.92
2018-09-03T19:33:11.016Z,101754.54
2018-09-03T19:35:38.736Z,101753.94
2018-09-03T19:38:06.472Z,101756.84
2018-09-03T19:40:34.183Z,101754.91
2018-09-03T19:43:01.867Z,101759.70
2018-09-03T19:45:29.585Z,101764.92
2018-09-03T19:47:57.257Z,101753.36
2018-09-03T19:50:24.977Z,101750.94
2018-09-03T19:52:52.684Z,101750.14
2018-09-03T19:55:20.412Z,101745.83
2018-09-03T19:57:48.088Z,101742.97
2018-09-03T20:00:15.760Z,101740.93
2018-09-03T20:02:43.508Z,101740.73
2018-09-03T20:05:11.245Z,101733.45
2018-09-03T20:07:39.019Z,101742.44
2018-09-03T20:10:06.860Z,101739.14
2018-09-03T20:12:34.636Z,101742.54
2018-09-03T20:15:02.408Z,101742.75
2018-09-03T20:17:30.123Z,101742.91
2018-09-03T20:19:57.858Z,101742.59
2018-09-03T20:22:25.566Z,101736.52
2018-09-03T20:24:53.267Z,101737.90
2018-09-03T20:27:20.952Z,101729.25
2018-09-03T20:29:48.666Z,101734.53
2018-09-03T20:32:16.347Z,101734.66
2018-09-03T20:34:44.028Z,101738.25
2018-09-03T20:37:11.707Z,101731.73
2018-09-03T20:39:39.472Z,101735.25
2018-09-03T20:42:07.404Z,101734.42
2018-09-03T20:44:35.151Z,101728.77
2018-09-03T20:47:02.908Z,101723.69
2018-09-03T20:49:30.611Z,101728.66
2018-09-03T20:51:58.324Z,101734.94
2018-09-03T20:54:26.005Z,101731.55
2018-09-03T20:56:53.775Z,101725.98
2018-09-03T20:59:21.503Z,101735.81
2018-09-03T21:01:49.196Z,101732.83
2018-09-03T21:04:16.965Z,101729.31
2018-09-03T21:06:44.740Z,101730.61
2018-09-03T21:09:12.441Z,101730.56
2018-09-03T21:11:40.147Z,101728.91
2018-09-03T21:14:07.901Z,101730.36
2018-09-03T21:16:35.551Z,101726.41
2018-09-03T21:19:03.492Z,101723.83
2018-09-03T21:21:31.331Z,101722.12
2018-09-03T21:23:59.099Z,101725.14
2018-09-03T21:26:26.797Z,101718.92
2018-09-03T21:28:54.488Z,101721.44
2018-09-03T21:31:22.164Z,101717.86
2018-09-03T21:33:49.853Z,101720.82
2018-09-03T21:36:17.525Z,101715.42
2018-09-03T21:38:45.213Z,101718.42
2018-09-03T21:41:12.996Z,101713.83
2018-09-03T21:43:40.694Z,101707.94
2018-09-03T21:46:08.763Z,101704.64
2018-09-03T21:48:36.469Z,101705.67
2018-09-03T21:51:04.171Z,101702.97
2018-09-03T21:53:31.928Z,101706.48
2018-09-03T21:55:59.745Z,101698.06
2018-09-03T21:58:27.711Z,101694.41
2018-09-03T22:00:55.428Z,101696.54
2018-09-03T22:03:23.120Z,101695.44
2018-09-03T22:05:50.807Z,101691.01
2018-09-03T22:08:18.537Z,101695.72
2018-09-03T22:10:46.224Z,101699.54
2018-09-03T22:13:13.902Z,101701.06
2018-09-03T22:15:41.620Z,101695.52
2018-09-03T22:18:09.859Z,101690.87
2018-09-03T22:20:37.904Z,101689.50
2018-09-03T22:23:05.820Z,101690.75
2018-09-03T22:25:33.500Z,101688.00
2018-09-03T22:28:01.267Z,101693.19
2018-09-03T22:30:29.116Z,101693.54
2018-09-03T22:32:56.788Z,101692.09
2018-09-03T22:35:24.493Z,101694.60
2018-09-03T22:37:52.288Z,101696.16
2018-09-03T22:40:19.947Z,101693.72
2018-09-03T22:42:47.607Z,101688.69
2018-09-03T22:45:15.364Z,101685.88
2018-09-03T22:47:43.040Z,101683.03
2018-09-03T22:50:10.756Z,101691.62
2018-09-03T22:52:38.435Z,101686.21
2018-09-03T22:55:06.229Z,101683.03
2018-09-03T22:57:33.912Z,101678.38
2018-09-03T23:00:01.656Z,101685.66
2018-09-03T23:02:29.443Z,101680.18
2018-09-03T23:04:57.176Z,101677.50
2018-09-03T23:07:24.889Z,101675.16
2018-09-03T23:09:52.567Z,101671.88
2018-09-03T23:12:20.253Z,101667.78
2018-09-03T23:14:47.959Z,101668.82
2018-09-03T23:17:15.655Z,101665.08
2018-09-03T23:19:43.364Z,101668.02
2018-09-03T23:22:11.089Z,101660.85
2018-09-03T23:24:38.776Z,101665.95
2018-09-03T23:27:06.462Z,101665.77
2018-09-03T23:29:34.237Z,101659.84
2018-09-03T23:32:02.161Z,101661.91
2018-09-03T23:34:29.844Z,101659.52
2018-09-03T23:36:57.528Z,101654.11
2018-09-03T23:39:25.215Z,101654.39
2018-09-03T23:41:52.910Z,101658.10
2018-09-03T23:44:20.673Z,101657.89
2018-09-03T23:46:48.368Z,101647.57
2018-09-03T23:49:16.064Z,101646.94
2018-09-03T23:51:43.735Z,101648.75
2018-09-03T23:54:11.512Z,101647.14
2018-09-03T23:56:39.235Z,101654.63
2018-09-03T23:59:06.975Z,101652.59
